createdAt,value
2022-12-29T00:01:45.021Z,78.80
2022-12-29T00:04:48.174Z,78.80
2022-12-29T00:07:53.139Z,78.30
2022-12-29T00:10:56.615Z,78.50
2022-12-29T00:14:21.438Z,78.30
2022-12-29T00:17:27.386Z,78.40
2022-12-29T00:20:47.906Z,78.30
2022-12-29T00:24:24.563Z,78.40
2022-12-29T00:27:46.470Z,78.40
2022-12-29T00:31:07.080Z,78.40
2022-12-29T00:34:30.859Z,78.40
2022-12-29T00:37:47.876Z,78.50
2022-12-29T00:41:10.117Z,78.40
2022-12-29T00:44:15.439Z,78.40
2022-12-29T00:47:18.534Z,78.50
2022-12-29T00:50:20.659Z,78.60
2022-12-29T00:53:23.773Z,78.80
2022-12-29T00:56:28.199Z,78.80
2022-12-29T00:59:31.244Z,78.90
2022-12-29T01:02:34.218Z,79.10
2022-12-29T01:05:38.541Z,79.40
2022-12-29T01:08:41.760Z,79.00
2022-12-29T01:11:45.341Z,79.00
2022-12-29T01:14:48.321Z,79.00
2022-12-29T01:17:51.304Z,79.00
2022-12-29T01:21:01.424Z,79.00
2022-12-29T01:24:04.941Z,79.70
2022-12-29T01:27:09.262Z,79.00
2022-12-29T01:30:13.461Z,79.10
2022-12-29T01:33:17.582Z,79.60
2022-12-29T01:36:22.382Z,79.20
2022-12-29T01:39:25.547Z,79.20
2022-12-29T01:42:30.028Z,79.20
2022-12-29T01:45:32.937Z,79.30
2022-12-29T01:48:37.249Z,78.90
2022-12-29T01:51:44.177Z,79.20
2022-12-29T01:54:56.072Z,79.30
2022-12-29T01:58:06.536Z,79.60
2022-12-29T02:01:10.237Z,79.40
2022-12-29T02:04:14.797Z,79.40
2022-12-29T02:07:21.771Z,79.40
2022-12-29T02:10:29.649Z,79.50
2022-12-29T02:13:34.486Z,79.50
2022-12-29T02:16:59.609Z,79.50
2022-12-29T02:20:57.801Z,79.80
2022-12-29T02:24:44.194Z,80.00
2022-12-29T02:28:26.995Z,80.00
2022-12-29T02:31:39.610Z,80.10
2022-12-29T02:34:56.241Z,80.10
2022-12-29T02:38:14.916Z,80.80
2022-12-29T02:41:25.645Z,80.20
2022-12-29T02:44:44.163Z,80.60
2022-12-29T02:47:56.773Z,80.20
2022-12-29T02:51:05.157Z,80.20
2022-12-29T02:54:26.261Z,79.90
2022-12-29T02:57:36.251Z,80.20
2022-12-29T03:00:50.452Z,80.40
2022-12-29T03:04:17.178Z,80.30
2022-12-29T03:07:32.887Z,80.40
2022-12-29T03:10:50.981Z,80.30
2022-12-29T03:14:16.607Z,80.30
2022-12-29T03:17:29.939Z,80.20
2022-12-29T03:20:44.948Z,80.20
2022-12-29T03:23:51.382Z,80.30
2022-12-29T03:26:58.362Z,80.20
2022-12-29T03:30:05.756Z,80.20
2022-12-29T03:33:14.143Z,80.00
2022-12-29T03:36:29.174Z,80.10
2022-12-29T03:39:32.816Z,80.20
2022-12-29T03:42:38.805Z,80.00
2022-12-29T03:45:41.893Z,79.90
2022-12-29T03:48:44.868Z,79.80
2022-12-29T03:51:51.820Z,79.70
2022-12-29T03:54:55.153Z,79.70
2022-12-29T03:57:59.340Z,79.70
2022-12-29T04:01:02.395Z,79.60
2022-12-29T04:04:06.067Z,79.90
2022-12-29T04:07:10.541Z,79.50
2022-12-29T04:10:13.496Z,79.70
2022-12-29T04:13:16.880Z,79.60
2022-12-29T04:16:21.809Z,79.20
2022-12-29T04:19:24.912Z,79.60
2022-12-29T04:22:29.443Z,79.70
2022-12-29T04:25:33.955Z,79.70
2022-12-29T04:28:38.669Z,79.60
2022-12-29T04:31:41.961Z,79.80
2022-12-29T04:34:45.169Z,79.60
2022-12-29T04:37:49.582Z,79.80
2022-12-29T04:40:53.399Z,79.40
2022-12-29T04:43:56.817Z,79.40
2022-12-29T04:46:59.874Z,79.40
2022-12-29T04:50:02.973Z,79.50
2022-12-29T04:53:07.658Z,79.50
2022-12-29T04:56:11.189Z,79.30
2022-12-29T04:59:14.161Z,79.30
2022-12-29T05:02:17.856Z,79.20
2022-12-29T05:05:21.905Z,79.20
2022-12-29T05:08:28.510Z,78.90
2022-12-29T05:11:31.715Z,79.20
2022-12-29T05:14:35.271Z,79.00
2022-12-29T05:17:38.888Z,78.90
2022-12-29T05:20:42.025Z,79.00
2022-12-29T05:23:46.469Z,78.90
2022-12-29T05:26:49.544Z,78.90
2022-12-29T05:29:52.532Z,78.90
2022-12-29T05:32:55.568Z,78.90
2022-12-29T05:35:58.625Z,79.10
2022-12-29T05:39:02.961Z,79.10
2022-12-29T05:42:06.154Z,78.50
2022-12-29T05:45:11.136Z,78.90
2022-12-29T05:48:14.151Z,79.40
2022-12-29T05:51:17.067Z,79.00
2022-12-29T05:54:22.684Z,79.10
2022-12-29T05:57:25.839Z,79.20
2022-12-29T06:00:28.817Z,79.30
2022-12-29T06:03:32.011Z,79.30
2022-12-29T06:06:35.386Z,79.10
2022-12-29T06:09:41.085Z,79.40
2022-12-29T06:12:44.198Z,79.50
2022-12-29T06:15:47.271Z,79.50
2022-12-29T06:18:50.272Z,79.50
2022-12-29T06:21:54.018Z,79.40
2022-12-29T06:25:03.172Z,79.30
2022-12-29T06:28:08.319Z,79.30
2022-12-29T06:31:12.267Z,79.10
2022-12-29T06:34:15.712Z,79.10
2022-12-29T06:37:18.767Z,79.10
2022-12-29T06:40:24.064Z,78.90
2022-12-29T06:43:27.149Z,78.80
2022-12-29T06:46:30.264Z,78.80
2022-12-29T06:49:33.241Z,78.80
2022-12-29T06:52:37.115Z,78.80
2022-12-29T06:55:43.225Z,78.70
2022-12-29T06:58:46.234Z,78.60
2022-12-29T07:01:49.524Z,78.60
2022-12-29T07:04:53.101Z,78.60
2022-12-29T07:07:56.678Z,78.60
2022-12-29T07:11:01.456Z,78.60
2022-12-29T07:14:05.763Z,79.00
2022-12-29T07:17:08.979Z,78.60
2022-12-29T07:20:12.853Z,78.60
2022-12-29T07:23:16.096Z,78.60
2022-12-29T07:26:20.481Z,78.50
2022-12-29T07:29:24.292Z,78.60
2022-12-29T07:32:27.440Z,78.60
2022-12-29T07:35:30.534Z,78.50
2022-12-29T07:38:33.632Z,78.60
2022-12-29T07:41:38.055Z,78.80
2022-12-29T07:44:41.102Z,79.00
2022-12-29T07:47:44.135Z,78.40
2022-12-29T07:50:47.255Z,78.90
2022-12-29T07:53:50.366Z,79.00
2022-12-29T07:56:55.020Z,79.50
2022-12-29T07:59:58.045Z,79.00
2022-12-29T08:03:01.109Z,79.50
2022-12-29T08:06:04.460Z,79.10
2022-12-29T08:09:16.396Z,79.10
2022-12-29T08:12:24.180Z,79.20
2022-12-29T08:15:32.374Z,79.20
2022-12-29T08:18:35.911Z,79.20
2022-12-29T08:21:38.978Z,79.10
2022-12-29T08:24:42.595Z,79.10
2022-12-29T08:27:47.189Z,79.10
2022-12-29T08:30:50.247Z,79.10
2022-12-29T08:33:53.773Z,79.20
2022-12-29T08:36:56.921Z,79.10
2022-12-29T08:40:04.459Z,79.00
2022-12-29T08:43:09.205Z,78.80
2022-12-29T08:46:12.275Z,78.80
2022-12-29T08:49:15.933Z,78.70
2022-12-29T08:52:19.209Z,78.50
2022-12-29T08:55:22.226Z,78.60
2022-12-29T08:58:27.404Z,78.60
2022-12-29T09:01:31.416Z,78.60
2022-12-29T09:04:34.499Z,79.30
2022-12-29T09:07:37.815Z,78.90
2022-12-29T09:10:40.802Z,78.60
2022-12-29T09:13:45.345Z,78.60
2022-12-29T09:17:06.266Z,79.10
2022-12-29T09:20:10.686Z,78.30
2022-12-29T09:23:13.725Z,78.20
2022-12-29T09:26:16.756Z,78.20
2022-12-29T09:29:21.175Z,78.20
2022-12-29T09:32:27.500Z,78.30
2022-12-29T09:35:32.885Z,78.40
2022-12-29T09:38:35.873Z,78.00
2022-12-29T09:41:45.249Z,78.50
2022-12-29T09:45:05.316Z,78.40
2022-12-29T09:48:19.814Z,78.30
2022-12-29T09:51:27.402Z,78.00
2022-12-29T09:54:44.784Z,78.10
2022-12-29T09:57:58.619Z,78.00
2022-12-29T10:01:07.166Z,77.90
2022-12-29T10:04:10.537Z,77.90
2022-12-29T10:07:30.819Z,77.90
2022-12-29T10:10:42.408Z,77.60
2022-12-29T10:14:13.877Z,77.50
2022-12-29T10:17:36.975Z,76.90
2022-12-29T10:20:54.611Z,77.40
2022-12-29T10:24:00.962Z,77.30
2022-12-29T10:27:05.669Z,77.30
2022-12-29T10:30:16.097Z,77.50
2022-12-29T10:33:26.398Z,76.90
2022-12-29T10:36:37.901Z,77.00
2022-12-29T10:39:51.320Z,76.90
2022-12-29T10:42:57.307Z,76.50
2022-12-29T10:46:06.647Z,76.40
2022-12-29T10:49:21.937Z,76.30
2022-12-29T10:52:30.069Z,76.20
2022-12-29T10:55:37.879Z,76.50
2022-12-29T10:58:49.317Z,76.60
2022-12-29T11:02:21.927Z,76.80
2022-12-29T11:05:35.801Z,76.30
2022-12-29T11:08:47.056Z,77.30
2022-12-29T11:11:50.107Z,76.70
2022-12-29T11:15:15.508Z,76.50
2022-12-29T11:18:25.525Z,76.10
2022-12-29T11:21:41.209Z,76.40
2022-12-29T11:24:49.052Z,76.20
2022-12-29T11:28:00.489Z,76.10
2022-12-29T11:31:05.970Z,75.90
2022-12-29T11:34:09.546Z,75.90
2022-12-29T11:37:17.411Z,75.60
2022-12-29T11:40:22.913Z,75.30
2022-12-29T11:43:34.387Z,75.20
2022-12-29T11:46:40.287Z,75.00
2022-12-29T11:49:43.493Z,75.40
2022-12-29T11:52:51.267Z,74.90
2022-12-29T11:55:58.575Z,74.20
2022-12-29T11:59:45.845Z,73.80
2022-12-29T12:02:58.219Z,72.30
2022-12-29T12:06:04.238Z,72.50
2022-12-29T12:09:18.504Z,72.90
2022-12-29T12:12:29.799Z,73.20
2022-12-29T12:15:45.382Z,73.40
2022-12-29T12:18:54.655Z,73.80
2022-12-29T12:22:06.158Z,73.10
2022-12-29T12:25:22.267Z,72.90
2022-12-29T12:28:39.411Z,72.00
2022-12-29T12:31:52.471Z,72.40
2022-12-29T12:34:55.550Z,72.50
2022-12-29T12:38:17.841Z,72.80
2022-12-29T12:41:39.783Z,72.40
2022-12-29T12:44:59.564Z,72.30
2022-12-29T12:48:23.553Z,71.60
2022-12-29T12:51:38.767Z,72.10
2022-12-29T12:55:05.543Z,71.70
2022-12-29T12:58:25.958Z,71.50
2022-12-29T13:01:48.618Z,71.60
2022-12-29T13:05:24.272Z,71.20
2022-12-29T13:09:07.710Z,70.50
2022-12-29T13:12:30.023Z,71.10
2022-12-29T13:15:50.945Z,71.20
2022-12-29T13:19:04.264Z,71.10
2022-12-29T13:22:18.331Z,71.50
2022-12-29T13:25:34.980Z,71.40
2022-12-29T13:28:55.283Z,71.40
2022-12-29T13:32:24.047Z,71.50
2022-12-29T13:35:58.255Z,71.30
2022-12-29T13:39:16.165Z,71.30
2022-12-29T13:42:26.241Z,71.40
2022-12-29T13:45:34.636Z,71.60
2022-12-29T13:48:48.308Z,71.50
2022-12-29T13:51:55.066Z,71.50
2022-12-29T13:55:09.205Z,71.80
2022-12-29T13:58:28.643Z,72.20
2022-12-29T14:01:38.220Z,71.60
2022-12-29T14:05:00.182Z,71.80
2022-12-29T14:08:06.776Z,71.70
2022-12-29T14:11:12.715Z,72.00
2022-12-29T14:14:24.311Z,71.80
2022-12-29T14:17:27.364Z,72.30
2022-12-29T14:20:32.234Z,72.10
2022-12-29T14:23:42.557Z,72.00
2022-12-29T14:26:45.521Z,72.00
2022-12-29T14:29:51.127Z,72.70
2022-12-29T14:33:06.061Z,72.30
2022-12-29T14:36:36.404Z,72.10
2022-12-29T14:39:42.115Z,72.00
2022-12-29T14:42:46.751Z,72.40
2022-12-29T14:46:01.183Z,72.60
2022-12-29T14:49:04.618Z,72.80
2022-12-29T14:52:19.425Z,72.70
2022-12-29T14:55:40.670Z,72.60
2022-12-29T14:58:51.907Z,73.20
2022-12-29T15:01:58.966Z,73.40
2022-12-29T15:05:04.674Z,73.50
2022-12-29T15:08:10.752Z,73.70
2022-12-29T15:11:19.352Z,74.00
2022-12-29T15:14:38.630Z,74.10
2022-12-29T15:17:41.568Z,74.80
2022-12-29T15:20:45.107Z,74.50
2022-12-29T15:23:50.360Z,74.70
2022-12-29T15:26:56.006Z,74.90
2022-12-29T15:30:02.668Z,75.30
2022-12-29T15:33:21.362Z,75.30
2022-12-29T15:36:27.683Z,75.70
2022-12-29T15:39:33.462Z,75.40
2022-12-29T15:43:02.584Z,75.20
2022-12-29T15:46:06.321Z,75.80
2022-12-29T15:49:15.178Z,75.70
2022-12-29T15:52:21.966Z,75.80
2022-12-29T15:55:34.021Z,75.80
2022-12-29T15:58:45.452Z,76.20
2022-12-29T16:01:48.709Z,75.90
2022-12-29T16:05:16.594Z,75.70
2022-12-29T16:08:34.665Z,75.70
2022-12-29T16:11:42.679Z,75.80
2022-12-29T16:14:49.487Z,75.60
2022-12-29T16:17:56.677Z,75.70
2022-12-29T16:20:59.877Z,75.70
2022-12-29T16:24:08.845Z,75.70
2022-12-29T16:27:24.109Z,75.60
2022-12-29T16:30:33.831Z,75.60
2022-12-29T16:33:47.671Z,75.60
2022-12-29T16:37:02.217Z,75.60
2022-12-29T16:40:32.244Z,75.50
2022-12-29T16:43:42.693Z,74.80
2022-12-29T16:47:00.511Z,75.10
2022-12-29T16:50:28.242Z,75.20
2022-12-29T16:53:38.568Z,75.20
2022-12-29T16:56:46.828Z,75.00
2022-12-29T16:59:56.190Z,74.90
2022-12-29T17:03:02.775Z,75.00
2022-12-29T17:06:07.215Z,75.00
2022-12-29T17:09:22.391Z,74.90
2022-12-29T17:12:30.290Z,74.70
2022-12-29T17:15:35.653Z,74.60
2022-12-29T17:18:39.247Z,74.70
2022-12-29T17:21:42.223Z,75.00
2022-12-29T17:24:45.429Z,75.80
2022-12-29T17:27:54.124Z,75.10
2022-12-29T17:31:04.377Z,75.10
2022-12-29T17:34:09.515Z,75.10
2022-12-29T17:37:33.684Z,75.20
2022-12-29T17:40:37.902Z,75.60
2022-12-29T17:43:41.146Z,75.40
2022-12-29T17:46:45.808Z,75.40
2022-12-29T17:49:48.859Z,75.20
2022-12-29T17:53:00.709Z,75.10
2022-12-29T17:56:04.568Z,74.90
2022-12-29T17:59:14.738Z,74.70
2022-12-29T18:02:32.301Z,74.60
2022-12-29T18:05:35.523Z,74.50
2022-12-29T18:08:40.697Z,74.50
2022-12-29T18:11:46.178Z,74.50
2022-12-29T18:14:49.394Z,74.40
2022-12-29T18:18:01.576Z,74.60
2022-12-29T18:21:04.731Z,74.60
2022-12-29T18:24:12.634Z,74.60
2022-12-29T18:27:19.360Z,74.70
2022-12-29T18:30:22.397Z,74.70
2022-12-29T18:33:27.596Z,74.80
2022-12-29T18:36:31.866Z,74.90
2022-12-29T18:39:34.913Z,74.70
2022-12-29T18:42:37.901Z,75.10
2022-12-29T18:45:40.855Z,75.00
2022-12-29T18:48:45.573Z,75.30
2022-12-29T18:51:48.557Z,75.30
2022-12-29T18:54:51.567Z,75.40
2022-12-29T18:57:56.098Z,75.40
2022-12-29T19:00:59.696Z,75.50
2022-12-29T19:04:05.372Z,75.50
2022-12-29T19:07:08.247Z,75.60
2022-12-29T19:10:11.242Z,75.60
2022-12-29T19:13:18.887Z,75.60
2022-12-29T19:16:24.932Z,75.70
2022-12-29T19:19:29.375Z,75.70
2022-12-29T19:22:32.482Z,75.80
2022-12-29T19:25:36.028Z,75.70
2022-12-29T19:28:38.962Z,76.30
2022-12-29T19:31:42.087Z,75.70
2022-12-29T19:34:48.775Z,75.70
2022-12-29T19:37:52.826Z,75.20
2022-12-29T19:40:56.482Z,75.60
2022-12-29T19:43:59.682Z,75.60
2022-12-29T19:47:02.730Z,75.50
2022-12-29T19:50:09.930Z,75.50
2022-12-29T19:53:13.457Z,75.40
2022-12-29T19:56:17.292Z,75.50
2022-12-29T19:59:20.276Z,75.40
2022-12-29T20:02:26.037Z,75.50
2022-12-29T20:05:30.496Z,75.50
2022-12-29T20:08:33.557Z,75.50
2022-12-29T20:11:37.000Z,75.50
2022-12-29T20:14:40.716Z,75.50
2022-12-29T20:18:12.631Z,75.60
2022-12-29T20:21:10.682Z,75.60
2022-12-29T20:24:13.684Z,75.50
2022-12-29T20:27:16.779Z,75.60
2022-12-29T20:30:19.728Z,75.50
2022-12-29T20:33:22.763Z,75.50
2022-12-29T20:36:30.334Z,75.40
2022-12-29T20:39:33.573Z,75.50
2022-12-29T20:42:36.669Z,75.50
2022-12-29T20:45:40.117Z,75.60
2022-12-29T20:48:44.003Z,75.60
2022-12-29T20:52:05.818Z,75.70
2022-12-29T20:55:09.980Z,75.70
2022-12-29T20:58:23.434Z,75.80
2022-12-29T21:01:27.501Z,75.90
2022-12-29T21:04:56.952Z,76.20
2022-12-29T21:07:59.424Z,76.40
2022-12-29T21:11:03.385Z,76.50
2022-12-29T21:14:06.507Z,76.50
2022-12-29T21:17:09.623Z,76.70
2022-12-29T21:20:20.057Z,76.70
2022-12-29T21:23:24.906Z,76.80
2022-12-29T21:26:27.975Z,76.90
2022-12-29T21:29:30.967Z,77.00
2022-12-29T21:32:34.049Z,77.00
2022-12-29T21:35:38.389Z,76.90
2022-12-29T21:38:43.428Z,76.60
2022-12-29T21:41:47.464Z,76.30
2022-12-29T21:45:08.344Z,76.30
2022-12-29T21:48:24.916Z,75.90
2022-12-29T21:51:47.004Z,75.40
2022-12-29T21:55:04.825Z,75.70
2022-12-29T21:58:41.277Z,75.70
2022-12-29T22:02:02.650Z,75.90
2022-12-29T22:05:25.763Z,75.90
2022-12-29T22:08:46.506Z,75.90
2022-12-29T22:12:08.719Z,76.00
2022-12-29T22:15:12.059Z,75.70
2022-12-29T22:18:15.087Z,75.90
2022-12-29T22:21:19.337Z,75.90
2022-12-29T22:24:22.329Z,76.00
2022-12-29T22:27:27.147Z,76.00
2022-12-29T22:30:30.169Z,76.00
2022-12-29T22:33:33.323Z,76.10
2022-12-29T22:36:36.305Z,76.00
2022-12-29T22:39:39.256Z,76.40
2022-12-29T22:42:43.607Z,76.00
2022-12-29T22:45:46.685Z,75.80
2022-12-29T22:48:49.677Z,75.90
2022-12-29T22:51:52.789Z,75.80
2022-12-29T22:54:56.204Z,75.70
2022-12-29T22:58:03.849Z,75.80
2022-12-29T23:01:06.872Z,75.70
2022-12-29T23:04:57.251Z,75.70
2022-12-29T23:07:34.165Z,75.60
2022-12-29T23:10:37.189Z,75.40
2022-12-29T23:13:44.579Z,75.30
2022-12-29T23:16:47.838Z,75.20
2022-12-29T23:19:52.056Z,75.20
2022-12-29T23:22:54.896Z,75.20
2022-12-29T23:25:57.881Z,75.30
2022-12-29T23:29:05.947Z,75.00
2022-12-29T23:32:09.156Z,74.80
2022-12-29T23:35:12.284Z,74.80
2022-12-29T23:38:15.339Z,74.90
2022-12-29T23:41:18.284Z,74.60
2022-12-29T23:44:22.554Z,74.30
2022-12-29T23:47:25.748Z,74.10
2022-12-29T23:50:28.834Z,73.90
2022-12-29T23:53:31.854Z,73.80
2022-12-29T23:56:35.036Z,73.80
2022-12-29T23:59:39.313Z,73.70
